Time;durP1;ratioP1;P1;durP2;ratioP2;P2;SDS_P1;SDS_P2;PMS_P1;PMS_P2;Temp;Humidity;BMP_temperature;BMP_pressure;BME280_temperature;BME280_humidity;BME280_pressure;Samples;Min_cycle;Max_cycle;Signal;HPM_P1;HPM_P2
2022/09/17 00:56:34;;;;;;;7.87;3.00;;;;;;;17.90;79.55;96637.31;10494767;27;20343;-55
2022/09/17 01:01:34;;;;;;;9.27;2.97;;;;;;;18.07;78.74;96639.09;10494754;28;20083;-55
2022/09/17 01:06:38;;;;;;;8.35;3.20;;;;;;;18.28;77.70;96627.53;10494513;28;20517;-55
2022/09/17 01:12:06;;;;;;;7.72;3.38;;;;;;;18.47;77.40;96632.69;10494246;28;20062;-55
2022/09/17 01:17:36;;;;;;;9.05;3.45;;;;;;;18.56;77.00;96624.34;10493851;28;20079;-55
2022/09/17 01:23:26;;;;;;;6.28;3.20;;;;;;;18.61;76.65;96619.72;10493366;28;20078;-55
2022/09/17 01:28:40;;;;;;;7.00;3.30;;;;;;;18.59;76.46;96612.84;10475648;28;20075;-55
2022/09/17 01:34:04;;;;;;;9.77;3.55;;;;;;;18.55;77.04;96598.16;10493498;28;20063;-55
2022/09/17 01:39:18;;;;;;;11.13;4.18;;;;;;;18.45;77.26;96617.94;10491798;28;20085;-55
2022/09/17 01:44:29;;;;;;;9.10;3.45;;;;;;;18.18;78.57;96613.16;10490962;28;20578;-55
2022/09/17 01:49:31;;;;;;;10.50;3.50;;;;;;;18.12;78.38;96603.81;10492946;28;20176;-56
2022/09/17 01:54:37;;;;;;;9.25;3.47;;;;;;;18.16;77.88;96618.50;10481621;28;20067;-55
2022/09/17 01:59:40;;;;;;;8.43;3.53;;;;;;;18.18;78.03;96634.19;10464485;28;20455;-55
2022/09/17 02:04:54;;;;;;;9.98;3.38;;;;;;;18.22;77.94;96617.31;10463950;28;20067;-55
2022/09/17 02:10:04;;;;;;;7.22;3.45;;;;;;;18.28;77.81;96592.56;10463683;28;20079;-55
2022/09/17 02:15:10;;;;;;;8.48;3.30;;;;;;;18.31;78.12;96566.13;10464137;28;20463;-55
2022/09/17 02:20:10;;;;;;;8.13;3.30;;;;;;;18.30;78.13;96564.44;10463735;28;20075;-55
2022/09/17 02:25:30;;;;;;;9.63;3.38;;;;;;;18.11;78.94;96549.59;10463607;28;20067;-55
2022/09/17 02:30:30;;;;;;;12.18;3.42;;;;;;;18.08;79.37;96533.16;10463203;28;20067;-55
2022/09/17 02:35:31;;;;;;;8.30;3.65;;;;;;;18.07;79.12;96550.69;10463361;28;20402;-55
2022/09/17 02:40:37;;;;;;;8.57;3.65;;;;;;;18.22;78.69;96563.97;10462729;28;20075;-55
2022/09/17 02:46:03;;;;;;;9.48;3.38;;;;;;;18.33;78.31;96556.38;10462381;28;20071;-55
2022/09/17 02:51:25;;;;;;;11.43;4.00;;;;;;;18.30;78.34;96541.63;10462544;28;20063;-55
2022/09/17 02:56:28;;;;;;;9.80;4.13;;;;;;;18.35;78.10;96531.75;10461968;28;20479;-56
2022/09/17 03:01:35;;;;;;;8.30;3.33;;;;;;;18.39;78.06;96522.78;10461915;28;20447;-55
2022/09/17 03:06:34;;;;;;;13.27;4.05;;;;;;;18.40;77.95;96518.38;10460531;28;20079;-55
2022/09/17 03:11:33;;;;;;;9.00;4.03;;;;;;;18.46;77.69;96504.09;10461991;28;20068;-55
2022/09/17 03:16:33;;;;;;;9.27;4.32;;;;;;;18.45;77.61;96487.47;10461332;28;20040;-55
2022/09/17 03:21:31;;;;;;;6.70;3.72;;;;;;;18.40;78.04;96479.81;10461395;28;20071;-55
2022/09/17 03:26:30;;;;;;;12.90;4.30;;;;;;;18.44;78.22;96475.25;10460816;28;20028;-55
2022/09/17 03:31:30;;;;;;;11.77;4.65;;;;;;;18.31;78.31;96451.41;10461117;28;20110;-55
2022/09/17 03:36:29;;;;;;;13.90;4.13;;;;;;;18.34;78.12;96463.56;10460712;28;20414;-55
2022/09/17 03:41:28;;;;;;;10.90;3.97;;;;;;;18.30;78.41;96451.50;10460759;28;20040;-55
2022/09/17 03:46:27;;;;;;;12.02;3.85;;;;;;;18.29;77.95;96453.28;10459540;28;20040;-55
2022/09/17 03:51:26;;;;;;;11.07;4.53;;;;;;;18.32;77.81;96447.03;10459614;28;20051;-55
2022/09/17 03:56:25;;;;;;;12.73;4.07;;;;;;;18.29;77.21;96439.28;10460432;28;20101;-55
2022/09/17 04:01:26;;;;;;;10.13;3.00;;;;;;;18.40;74.94;96457.97;10460131;28;20090;-55
2022/09/17 04:06:25;;;;;;;10.95;3.25;;;;;;;18.71;71.12;96445.84;10459082;28;20491;-55
2022/09/17 04:11:24;;;;;;;6.68;2.78;;;;;;;19.19;67.03;96431.75;10459579;28;20402;-56
2022/09/17 04:16:23;;;;;;;14.55;3.47;;;;;;;19.71;64.55;96417.38;10457422;28;20060;-55
2022/09/17 04:21:22;;;;;;;14.25;3.08;;;;;;;20.14;60.91;96412.19;10459181;28;20040;-56
2022/09/17 04:26:20;;;;;;;7.53;2.70;;;;;;;20.53;59.29;96410.69;10458558;28;20139;-55
2022/09/17 04:31:21;;;;;;;13.88;3.67;;;;;;;20.85;57.83;96431.56;10458550;28;20371;-55
2022/09/17 04:36:20;;;;;;;12.55;3.20;;;;;;;21.16;56.53;96445.44;10459024;28;20352;-56
2022/09/17 04:41:19;;;;;;;11.68;3.75;;;;;;;21.37;55.63;96467.81;10459455;28;20070;-56
2022/09/17 04:46:18;;;;;;;8.45;2.50;;;;;;;21.53;54.75;96481.69;10458453;28;20096;-56
2022/09/17 04:51:17;;;;;;;16.55;3.60;;;;;;;21.69;53.52;96501.81;10458400;28;20048;-55
2022/09/17 04:56:16;;;;;;;15.48;3.15;;;;;;;21.85;53.23;96518.34;10458976;28;20036;-55
2022/09/17 05:01:17;;;;;;;10.95;3.17;;;;;;;21.93;53.03;96539.81;10458349;28;20494;-56
2022/09/17 05:06:16;;;;;;;13.60;2.95;;;;;;;22.01;53.43;96554.31;10457502;28;20068;-56
2022/09/17 05:11:15;;;;;;;10.38;3.45;;;;;;;22.04;54.01;96565.56;10457997;28;20072;-56
2022/09/17 05:16:14;;;;;;;10.48;2.78;;;;;;;22.05;53.63;96563.75;10458029;28;20020;-56
2022/09/17 05:21:13;;;;;;;9.18;3.22;;;;;;;22.05;54.14;96576.97;10457880;28;20129;-55
2022/09/17 05:26:12;;;;;;;9.00;2.67;;;;;;;21.92;55.18;96587.44;10457619;28;20024;-55
2022/09/17 05:31:12;;;;;;;8.48;2.22;;;;;;;21.83;56.38;96609.16;10463228;28;20082;-56
2022/09/17 05:36:11;;;;;;;7.15;2.08;;;;;;;21.85;55.68;96616.06;10465495;28;20071;-56
2022/09/17 05:41:10;;;;;;;5.00;2.20;;;;;;;21.83;54.86;96620.59;10465688;28;20024;-56
2022/09/17 05:46:09;;;;;;;6.00;2.22;;;;;;;21.80;54.24;96625.22;10464868;28;20070;-55
2022/09/17 05:51:08;;;;;;;5.80;1.83;;;;;;;21.78;54.49;96622.69;10464480;28;20079;-55
2022/09/17 05:56:07;;;;;;;5.60;1.85;;;;;;;21.36;56.77;96623.59;10464576;28;20044;-55
2022/09/17 06:01:06;;;;;;;8.50;2.03;;;;;;;21.40;55.31;96612.75;10464555;28;20041;-55
2022/09/17 06:06:05;;;;;;;5.20;1.38;;;;;;;21.46;55.22;96604.47;10464399;28;20359;-55
2022/09/17 06:11:05;;;;;;;4.00;1.70;;;;;;;21.49;55.20;96592.84;10463707;28;20048;-55
2022/09/17 06:16:05;;;;;;;4.15;1.90;;;;;;;21.61;55.76;96592.06;10464082;28;20055;-55
2022/09/17 06:21:04;;;;;;;5.13;1.95;;;;;;;21.66;55.23;96623.47;10463411;28;20071;-55
2022/09/17 06:26:05;;;;;;;6.18;1.95;;;;;;;21.60;54.82;96643.19;10463069;28;20071;-55
2022/09/17 06:31:06;;;;;;;5.30;2.00;;;;;;;21.58;55.00;96660.06;10463411;28;20078;-55
2022/09/17 06:36:10;;;;;;;6.60;2.35;;;;;;;21.69;55.68;96665.53;10463141;28;20478;-55
2022/09/17 06:41:11;;;;;;;19.23;2.85;;;;;;;21.68;56.86;96677.84;10463057;28;20075;-55
2022/09/17 06:46:10;;;;;;;5.28;2.03;;;;;;;21.54;61.13;96673.44;10462623;28;20094;-55
2022/09/17 06:51:10;;;;;;;6.80;2.40;;;;;;;21.17;64.38;96635.25;10462604;28;20059;-55
2022/09/17 06:56:09;;;;;;;4.05;1.40;;;;;;;20.92;64.80;96625.38;10461904;28;20467;-55
2022/09/17 07:01:12;;;;;;;3.28;1.60;;;;;;;20.66;62.39;96593.50;10462090;28;20075;-55
2022/09/17 07:06:11;;;;;;;2.08;1.35;;;;;;;20.74;61.61;96577.22;10461494;28;20485;-55
2022/09/17 07:11:10;;;;;;;4.10;1.85;;;;;;;20.84;57.52;96590.69;10461487;28;20072;-55
2022/09/17 07:16:09;;;;;;;4.57;1.80;;;;;;;21.10;56.69;96605.78;10460998;28;20502;-55
2022/09/17 07:21:08;;;;;;;5.13;2.38;;;;;;;21.28;57.42;96629.34;10461405;28;20379;-55
2022/09/17 07:26:12;;;;;;;5.80;1.67;;;;;;;20.93;60.58;96622.63;10460384;28;20068;-55
2022/09/17 07:31:12;;;;;;;4.60;1.52;;;;;;;20.75;60.55;96625.53;10460978;28;20064;-55
2022/09/17 07:36:13;;;;;;;4.28;1.20;;;;;;;20.89;59.61;96617.63;10460768;28;20486;-55
2022/09/17 07:41:15;;;;;;;3.75;1.00;;;;;;;21.11;56.48;96601.34;10460601;28;20066;-55
2022/09/17 07:46:16;;;;;;;3.03;1.05;;;;;;;21.49;54.13;96596.34;10460110;28;20521;-55
2022/09/17 07:51:20;;;;;;;5.43;1.60;;;;;;;22.13;54.64;96606.34;10459710;28;20060;-55
2022/09/17 07:56:20;;;;;;;4.45;1.17;;;;;;;22.80;53.12;96590.44;10459780;28;20080;-55
2022/09/17 08:01:22;;;;;;;5.07;2.08;;;;;;;23.21;49.34;96606.06;10460357;28;20067;-55
2022/09/17 08:06:24;;;;;;;7.10;1.90;;;;;;;23.87;49.46;96594.41;10458484;28;20060;-55
2022/09/17 08:11:26;;;;;;;2.88;1.40;;;;;;;24.61;48.49;96576.47;10458419;28;20521;-55
2022/09/17 08:16:25;;;;;;;4.45;1.80;;;;;;;25.10;46.46;96568.25;10459249;28;20059;-55
2022/09/17 08:21:24;;;;;;;2.72;1.13;;;;;;;25.49;45.77;96547.44;10459237;28;20056;-55
2022/09/17 08:26:24;;;;;;;7.15;2.78;;;;;;;25.59;43.20;96536.94;10459464;28;20062;-55
2022/09/17 08:31:25;;;;;;;4.43;1.67;;;;;;;25.67;44.82;96523.06;10458757;28;20071;-55
2022/09/17 08:36:27;;;;;;;3.10;1.60;;;;;;;25.76;43.55;96518.78;10459804;28;20524;-56
2022/09/17 08:41:29;;;;;;;6.13;2.25;;;;;;;25.83;43.85;96506.69;10459853;28;20078;-55
2022/09/17 08:46:32;;;;;;;5.20;2.80;;;;;;;25.90;43.51;96497.22;10459963;28;20524;-55
2022/09/17 08:52:00;;;;;;;5.90;2.70;;;;;;;26.20;42.85;96499.16;10457698;28;20079;-55
2022/09/17 08:57:33;;;;;;;5.07;2.70;;;;;;;26.45;42.66;96494.44;10457335;28;20083;-55
2022/09/17 09:02:55;;;;;;;6.50;2.72;;;;;;;26.47;42.24;96468.56;10452537;28;20071;-56
2022/09/17 09:07:59;;;;;;;5.93;2.75;;;;;;;26.69;42.75;96484.34;10462009;28;20074;-55
2022/09/17 09:12:59;;;;;;;2.80;1.50;;;;;;;26.50;41.81;96447.84;10462244;28;20581;-55
2022/09/17 09:18:09;;;;;;;3.35;1.70;;;;;;;26.39;42.60;96471.84;10463862;28;20067;-55
2022/09/17 09:23:17;;;;;;;7.85;2.17;;;;;;;26.40;42.91;96472.72;10463265;28;20559;-55
2022/09/17 09:28:41;;;;;;;6.07;1.63;;;;;;;26.25;43.24;96482.81;10464410;28;20067;-55
2022/09/17 09:33:42;;;;;;;3.42;1.60;;;;;;;26.21;43.52;96497.38;10463297;28;20059;-55
2022/09/17 09:38:50;;;;;;;4.43;1.77;;;;;;;26.08;43.55;96501.00;10464777;28;20055;-55
2022/09/17 09:44:01;;;;;;;7.67;2.80;;;;;;;25.87;45.26;96532.88;10464724;28;20052;-56
2022/09/17 09:49:16;;;;;;;4.55;1.80;;;;;;;25.57;47.09;96554.81;10464412;28;20321;-56
2022/09/17 09:54:34;;;;;;;7.82;3.22;;;;;;;25.43;52.71;96595.75;10463796;28;20094;-57
2022/09/17 09:59:35;;;;;;;7.15;2.95;;;;;;;25.00;55.63;96615.06;10463769;28;20066;-56
2022/09/17 10:04:34;;;;;;;8.40;3.70;;;;;;;24.64;59.31;96631.97;10463815;28;20067;-56
2022/09/17 10:09:35;;;;;;;8.52;3.10;;;;;;;24.27;62.14;96638.22;10463783;28;20067;-56
2022/09/17 10:14:39;;;;;;;9.05;3.55;;;;;;;23.85;64.28;96642.19;10463111;28;20071;-56
2022/09/17 10:19:39;;;;;;;4.53;2.72;;;;;;;23.37;66.72;96650.84;10463921;28;20072;-56
2022/09/17 10:24:38;;;;;;;5.45;2.22;;;;;;;22.88;67.82;96656.03;10462627;28;20615;-56
2022/09/17 10:29:42;;;;;;;6.63;2.85;;;;;;;22.52;69.45;96607.28;10461998;28;20079;-56
2022/09/17 10:34:56;;;;;;;5.70;2.25;;;;;;;22.16;71.23;96585.03;10461737;28;20506;-55
2022/09/17 10:39:55;;;;;;;7.45;2.55;;;;;;;21.82;73.79;96534.38;10462388;28;20063;-55
2022/09/17 10:44:56;;;;;;;9.77;2.95;;;;;;;21.60;76.10;96561.34;10461908;28;20130;-55
2022/09/17 10:50:04;;;;;;;7.30;2.80;;;;;;;21.55;76.39;96548.44;10461956;28;20063;-55
2022/09/17 10:55:09;;;;;;;7.25;2.85;;;;;;;21.64;75.69;96527.66;10461891;28;20068;-55
2022/09/17 11:00:17;;;;;;;4.97;2.25;;;;;;;21.81;76.27;96530.06;10461236;28;20063;-55
2022/09/17 11:06:07;;;;;;;6.30;2.90;;;;;;;22.17;75.62;96532.06;10461133;28;20446;-55
2022/09/17 11:11:10;;;;;;;;;;;;;;;22.87;75.17;96548.53;10443886;28;20082;-56
2022/09/17 11:16:28;;;;;;;5.28;2.13;;;;;;;23.52;72.86;96569.50;10460717;28;20450;-56
2022/09/17 11:21:39;;;;;;;4.28;2.10;;;;;;;23.95;67.14;96581.41;10459671;28;20071;-56
2022/09/17 11:26:55;;;;;;;9.75;2.53;;;;;;;24.26;63.02;96567.63;10460313;28;20067;-56
2022/09/17 11:31:54;;;;;;;3.45;2.10;;;;;;;24.55;65.25;96583.13;10460252;28;20070;-56
2022/09/17 11:37:11;;;;;;;5.15;2.55;;;;;;;24.76;63.24;96577.13;10460149;28;20036;-56
2022/09/17 11:42:17;;;;;;;6.18;2.20;;;;;;;24.73;61.24;96561.44;10459458;28;20066;-56
2022/09/17 11:47:40;;;;;;;8.32;2.22;;;;;;;24.99;61.78;96570.91;10459228;28;20058;-56
2022/09/17 11:52:45;;;;;;;6.63;2.20;;;;;;;25.17;60.22;96551.84;10458304;28;20741;-56
2022/09/17 11:57:46;;;;;;;6.13;2.00;;;;;;;25.31;59.86;96552.41;10458725;28;20063;-56
2022/09/17 12:03:16;;;;;;;4.07;2.22;;;;;;;25.53;58.99;96556.88;10458458;28;20074;-56
2022/09/17 12:08:33;;;;;;;5.32;2.08;;;;;;;25.62;58.13;96542.03;10458596;28;20055;-56
2022/09/17 12:13:47;;;;;;;4.35;2.00;;;;;;;25.58;55.34;96531.78;10457923;28;20055;-56
2022/09/17 12:19:04;;;;;;;6.18;2.60;;;;;;;25.41;54.91;96507.41;10456327;28;20514;-56
2022/09/17 12:24:27;;;;;;;5.38;2.28;;;;;;;25.27;55.86;96535.06;10457568;28;20077;-56
2022/09/17 12:29:50;;;;;;;4.95;2.63;;;;;;;25.53;58.05;96548.06;10457827;28;20063;-57
2022/09/17 12:35:18;;;;;;;4.70;2.38;;;;;;;25.73;59.19;96539.31;10457618;28;20059;-58
2022/09/17 12:40:37;;;;;;;7.00;3.42;;;;;;;25.82;58.89;96536.91;10438685;28;20063;-57
2022/09/17 12:46:06;;;;;;;3.47;2.15;;;;;;;25.67;58.29;96529.22;10457035;28;20075;-57
2022/09/17 12:51:11;;;;;;;5.63;2.00;;;;;;;25.51;58.54;96515.47;10456483;28;20067;-57
2022/09/17 12:56:41;;;;;;;4.72;1.92;;;;;;;25.46;59.41;96512.34;10457298;28;20072;-56
2022/09/17 13:01:55;;;;;;;3.33;2.42;;;;;;;25.40;62.14;96507.53;10457186;28;20062;-56
2022/09/17 13:07:12;;;;;;;4.13;2.38;;;;;;;25.22;62.48;96507.19;10456807;28;20455;-56
2022/09/17 13:13:04;;;;;;;6.20;2.85;;;;;;;24.99;64.34;96483.34;10457057;28;20068;-56
2022/09/17 13:18:41;;;;;;;3.90;2.47;;;;;;;24.81;65.81;96488.25;10422642;28;20564;-56
2022/09/17 13:23:43;;;;;;;5.20;2.50;;;;;;;24.77;65.42;96485.94;10456453;28;20060;-56
2022/09/17 13:28:50;;;;;;;5.05;2.35;;;;;;;24.47;66.10;96464.38;10456899;28;20051;-56
2022/09/17 13:33:53;;;;;;;3.22;2.00;;;;;;;24.15;67.07;96463.31;10456915;28;20055;-56
2022/09/17 13:38:52;;;;;;;6.47;2.00;;;;;;;23.88;68.36;96443.25;10456094;28;20086;-56
2022/09/17 13:43:54;;;;;;;6.47;2.47;;;;;;;23.71;70.02;96435.75;10456228;28;20809;-57
2022/09/17 13:48:58;;;;;;;4.18;2.65;;;;;;;23.59;71.18;96432.19;10456629;28;20075;-57
2022/09/17 13:54:01;;;;;;;13.20;2.35;;;;;;;23.49;70.58;96413.50;10463231;28;20510;-56
2022/09/17 13:59:10;;;;;;;4.05;2.25;;;;;;;23.24;70.78;96398.56;10463287;28;20130;-56
2022/09/17 14:04:32;;;;;;;4.40;2.38;;;;;;;22.90;71.47;96392.22;10462987;28;20080;-56
2022/09/17 14:09:34;;;;;;;6.00;2.72;;;;;;;22.58;72.30;96380.34;10463065;28;20055;-57
2022/09/17 14:14:45;;;;;;;8.15;2.95;;;;;;;22.35;72.71;96368.75;10463150;28;20063;-56
2022/09/17 14:19:48;;;;;;;4.22;2.30;;;;;;;22.17;73.31;96352.38;10462349;28;20070;-56
2022/09/17 14:24:51;;;;;;;4.40;1.80;;;;;;;21.94;71.77;96347.84;10463026;28;20059;-56
2022/09/17 14:30:01;;;;;;;3.38;1.55;;;;;;;21.72;70.85;96337.91;10461750;28;20063;-56
2022/09/17 14:35:11;;;;;;;2.42;1.48;;;;;;;21.66;71.36;96348.88;10461680;28;20137;-56
2022/09/17 14:40:16;;;;;;;4.22;1.83;;;;;;;21.72;72.40;96345.84;10461843;28;20071;-56
2022/09/17 14:45:19;;;;;;;4.03;1.63;;;;;;;21.77;73.08;96356.91;10461895;28;20066;-56
2022/09/17 14:50:24;;;;;;;3.20;1.67;;;;;;;21.86;72.23;96329.88;10462438;28;20055;-57
2022/09/17 14:55:28;;;;;;;6.13;2.17;;;;;;;21.61;73.01;96317.50;10461327;28;20098;-56
2022/09/17 15:00:33;;;;;;;3.60;2.13;;;;;;;21.46;74.68;96335.25;10461148;28;20485;-56
2022/09/17 15:05:41;;;;;;;2.47;1.38;;;;;;;21.18;70.81;96315.13;10460278;28;20064;-56
2022/09/17 15:10:47;;;;;;;2.97;1.60;;;;;;;21.02;70.35;96246.72;10460684;28;20072;-56
2022/09/17 15:15:57;;;;;;;2.65;1.65;;;;;;;20.78;70.70;96269.44;10460269;28;20062;-56
2022/09/17 15:20:58;;;;;;;4.68;1.70;;;;;;;20.65;72.54;96278.13;10460246;28;20064;-57
2022/09/17 15:25:59;;;;;;;2.85;1.63;;;;;;;20.46;73.75;96262.66;10459758;28;20067;-56
2022/09/17 15:30:58;;;;;;;4.15;1.45;;;;;;;20.36;72.52;96229.09;10459726;28;20464;-56
2022/09/17 15:35:58;;;;;;;9.43;2.22;;;;;;;20.28;74.54;96190.94;10459135;28;20067;-56
2022/09/17 15:41:32;;;;;;;3.08;1.52;;;;;;;20.11;75.51;96204.31;10459521;28;20067;-56
2022/09/17 15:46:31;;;;;;;3.10;1.48;;;;;;;19.93;76.35;96205.47;10457497;28;20064;-56
2022/09/17 15:51:34;;;;;;;3.80;1.60;;;;;;;19.83;76.47;96194.69;10458962;28;20064;-56
2022/09/17 15:56:37;;;;;;;2.53;1.30;;;;;;;19.75;76.22;96205.72;10459230;28;20075;-56
2022/09/17 16:01:39;;;;;;;3.22;2.00;;;;;;;19.76;76.16;96215.28;10459065;28;20066;-56
2022/09/17 16:06:46;;;;;;;4.70;1.40;;;;;;;19.71;75.15;96233.16;10458267;28;20076;-56
2022/09/17 16:11:45;;;;;;;3.55;1.25;;;;;;;19.78;74.37;96237.09;10458428;28;20113;-56
2022/09/17 16:16:45;;;;;;;2.50;1.35;;;;;;;19.80;74.05;96219.44;10458047;28;20052;-56
2022/09/17 16:21:44;;;;;;;1.85;1.20;;;;;;;19.84;72.72;96202.50;10458239;28;20090;-56
2022/09/17 16:26:43;;;;;;;2.75;1.30;;;;;;;19.89;72.65;96193.47;10455440;28;20064;-56
2022/09/17 16:31:43;;;;;;;5.78;1.60;;;;;;;19.88;72.17;96197.88;10457522;28;20067;-56
2022/09/17 16:36:42;;;;;;;1.25;1.13;;;;;;;19.87;71.82;96175.97;10457711;28;20472;-56
2022/09/17 16:41:41;;;;;;;2.42;1.80;;;;;;;19.92;71.86;96191.47;10457956;28;20426;-56
2022/09/17 16:46:40;;;;;;;2.75;1.83;;;;;;;19.88;71.64;96208.41;10457459;28;20032;-56
2022/09/17 16:51:39;;;;;;;2.17;1.23;;;;;;;19.86;71.38;96194.50;10457489;28;20498;-57
2022/09/17 16:56:38;;;;;;;2.60;1.02;;;;;;;19.84;71.27;96170.91;10457990;28;20494;-56
2022/09/17 17:01:37;;;;;;;2.50;1.50;;;;;;;19.79;71.44;96167.75;10457010;28;20040;-56
2022/09/17 17:06:37;;;;;;;4.20;2.20;;;;;;;19.75;71.22;96168.03;10456524;28;20075;-56
2022/09/17 17:11:36;;;;;;;3.15;1.50;;;;;;;19.69;70.73;96148.19;10456603;28;20082;-56
2022/09/17 17:16:35;;;;;;;2.80;1.60;;;;;;;19.67;70.36;96129.00;10457234;28;20111;-56
2022/09/17 17:21:34;;;;;;;3.40;1.67;;;;;;;19.66;69.37;96140.50;10457038;28;20433;-56
2022/09/17 17:26:33;;;;;;;6.53;1.90;;;;;;;19.69;68.83;96171.88;10460736;28;20059;-56
2022/09/17 17:31:32;;;;;;;3.63;2.03;;;;;;;19.73;68.24;96198.84;10465321;28;20059;-56
2022/09/17 17:36:31;;;;;;;4.70;2.33;;;;;;;19.80;68.00;96195.75;10464730;28;20028;-56
2022/09/17 17:41:30;;;;;;;2.55;1.50;;;;;;;19.80;68.20;96189.63;10464675;28;20086;-56
2022/09/17 17:46:29;;;;;;;2.72;1.40;;;;;;;19.82;68.32;96199.13;10464033;28;20403;-56
2022/09/17 17:51:28;;;;;;;3.58;1.50;;;;;;;19.79;67.95;96214.25;10464136;28;20059;-56
2022/09/17 17:56:27;;;;;;;5.50;1.70;;;;;;;19.81;67.93;96207.97;10464138;28;20071;-56
2022/09/17 18:01:28;;;;;;;5.50;2.47;;;;;;;19.87;67.67;96217.25;10464131;28;20035;-56
2022/09/17 18:06:28;;;;;;;3.60;1.88;;;;;;;19.91;67.43;96234.56;10463213;28;20072;-56
2022/09/17 18:11:27;;;;;;;4.20;1.95;;;;;;;19.86;67.34;96229.59;10463321;28;20063;-56
2022/09/17 18:16:27;;;;;;;7.25;1.90;;;;;;;19.96;66.93;96242.16;10462416;28;20064;-56
2022/09/17 18:21:26;;;;;;;5.15;1.60;;;;;;;19.97;66.75;96231.53;10462959;28;20075;-56
2022/09/17 18:26:27;;;;;;;4.38;1.95;;;;;;;19.99;66.72;96194.56;10462503;28;20501;-56
2022/09/17 18:31:33;;;;;;;3.38;1.80;;;;;;;20.07;66.51;96151.03;10461966;28;20080;-56
2022/09/17 18:36:34;;;;;;;6.53;1.92;;;;;;;20.04;66.03;96168.78;10460988;28;20070;-56
2022/09/17 18:41:37;;;;;;;6.18;1.90;;;;;;;20.05;65.10;96168.69;10461771;28;20498;-56
2022/09/17 18:46:37;;;;;;;3.40;1.60;;;;;;;20.07;65.04;96182.63;10464385;28;20079;-56
2022/09/17 18:51:36;;;;;;;5.72;1.83;;;;;;;20.13;64.84;96191.06;10465058;28;20070;-56
2022/09/17 18:56:36;;;;;;;4.38;2.38;;;;;;;20.16;65.03;96180.31;10465292;28;20020;-56
2022/09/17 19:01:35;;;;;;;4.18;1.73;;;;;;;20.10;64.71;96196.53;10464300;28;20059;-56
2022/09/17 19:06:34;;;;;;;2.38;1.40;;;;;;;20.06;65.50;96201.97;10464241;28;20047;-56
2022/09/17 19:11:35;;;;;;;3.47;1.58;;;;;;;20.06;65.99;96191.44;10463974;28;20047;-55
2022/09/17 19:16:33;;;;;;;3.20;1.95;;;;;;;19.98;66.76;96193.75;10463594;28;20040;-56
2022/09/17 19:21:32;;;;;;;4.78;1.50;;;;;;;19.92;66.63;96194.13;10464108;28;20052;-57
2022/09/17 19:26:31;;;;;;;4.75;1.88;;;;;;;19.86;67.38;96179.56;10463798;28;20127;-56
2022/09/17 19:31:30;;;;;;;5.38;1.73;;;;;;;19.87;67.39;96180.41;10463649;28;20032;-57
2022/09/17 19:36:29;;;;;;;4.18;1.88;;;;;;;19.86;67.41;96179.56;10463630;28;20059;-56
2022/09/17 19:41:30;;;;;;;2.35;1.50;;;;;;;19.84;67.42;96191.97;10463440;28;20028;-56
2022/09/17 19:46:30;;;;;;;5.82;1.70;;;;;;;19.76;67.77;96191.59;10459746;28;20083;-57
2022/09/17 19:51:29;;;;;;;2.92;1.70;;;;;;;19.77;67.87;96201.19;10458510;28;20576;-57
2022/09/17 19:56:28;;;;;;;2.70;1.63;;;;;;;19.78;67.72;96218.66;10458347;28;20514;-56
2022/09/17 20:01:27;;;;;;;2.88;1.70;;;;;;;19.71;67.75;96212.09;10459168;28;20550;-56
2022/09/17 20:06:26;;;;;;;3.70;1.60;;;;;;;19.65;68.22;96191.44;10458169;28;20545;-57
2022/09/17 20:11:26;;;;;;;3.13;1.80;;;;;;;19.51;68.98;96172.97;10458308;28;20040;-56
2022/09/17 20:16:25;;;;;;;3.78;1.80;;;;;;;19.49;69.38;96174.91;10458454;28;20055;-56
2022/09/17 20:21:28;;;;;;;3.63;1.50;;;;;;;19.34;69.91;96174.88;10457957;28;20071;-57
2022/09/17 20:26:27;;;;;;;2.45;1.65;;;;;;;19.26;70.04;96184.19;10458231;28;20066;-57
2022/09/17 20:31:28;;;;;;;4.82;2.00;;;;;;;19.23;69.96;96180.81;10457254;28;20533;-57
2022/09/17 20:36:30;;;;;;;2.17;1.50;;;;;;;19.22;69.50;96160.69;10455671;28;20075;-56
2022/09/17 20:41:30;;;;;;;2.67;1.70;;;;;;;19.20;69.05;96153.84;10457026;28;20075;-56
2022/09/17 20:46:29;;;;;;;1.98;1.73;;;;;;;19.20;68.45;96148.56;10456797;28;20083;-57
2022/09/17 20:51:31;;;;;;;4.60;1.90;;;;;;;19.26;68.32;96158.72;10457278;28;20074;-57
2022/09/17 20:56:32;;;;;;;5.50;1.60;;;;;;;19.27;68.21;96155.16;10456782;28;20482;-56
2022/09/17 21:01:31;;;;;;;2.97;1.65;;;;;;;19.33;67.34;96159.22;10463382;28;20094;-57
2022/09/17 21:06:32;;;;;;;5.03;1.60;;;;;;;19.33;66.77;96160.03;10465018;28;20086;-57
2022/09/17 21:11:33;;;;;;;2.97;1.63;;;;;;;19.29;66.77;96142.75;10466038;28;20067;-56
2022/09/17 21:16:32;;;;;;;3.50;1.38;;;;;;;19.36;66.45;96161.63;10465564;28;20063;-56
2022/09/17 21:21:33;;;;;;;3.50;1.70;;;;;;;19.32;66.29;96168.88;10464682;28;20470;-56
2022/09/17 21:26:33;;;;;;;2.28;1.63;;;;;;;19.36;65.95;96159.84;10464922;28;20075;-57
2022/09/17 21:31:35;;;;;;;2.63;1.60;;;;;;;19.38;65.75;96160.59;10464847;28;20486;-56
2022/09/17 21:36:36;;;;;;;4.13;1.92;;;;;;;19.40;65.03;96158.72;10464119;28;20066;-57
2022/09/17 21:41:35;;;;;;;4.22;1.90;;;;;;;19.44;65.05;96168.13;10464608;28;20059;-57
2022/09/17 21:46:35;;;;;;;3.47;1.75;;;;;;;19.48;64.59;96179.28;10463872;28;20047;-56
2022/09/17 21:51:36;;;;;;;4.88;2.33;;;;;;;19.50;64.09;96168.69;10463371;28;20079;-58
2022/09/17 21:56:36;;;;;;;5.45;1.83;;;;;;;19.55;63.53;96170.06;10463992;28;20067;-57
2022/09/17 22:01:38;;;;;;;1.83;1.60;;;;;;;19.65;63.43;96175.66;10463967;28;20462;-57
2022/09/17 22:06:39;;;;;;;4.53;1.90;;;;;;;19.71;63.28;96180.53;10463129;28;20506;-57
2022/09/17 22:11:38;;;;;;;7.13;1.90;;;;;;;19.73;63.38;96165.47;10462993;28;20491;-57
2022/09/17 22:16:40;;;;;;;2.38;1.63;;;;;;;19.77;63.14;96174.88;10463277;28;20471;-57
2022/09/17 22:21:43;;;;;;;3.58;1.80;;;;;;;19.74;62.87;96185.59;10463119;28;20067;-57
2022/09/17 22:26:45;;;;;;;3.97;2.05;;;;;;;19.81;62.84;96173.75;10462384;28;20067;-57
2022/09/17 22:31:45;;;;;;;5.07;1.98;;;;;;;19.89;62.66;96169.78;10462334;28;20079;-57
2022/09/17 22:36:44;;;;;;;4.00;1.90;;;;;;;19.95;62.55;96177.28;10460384;28;20067;-57
2022/09/17 22:41:44;;;;;;;4.13;2.00;;;;;;;20.01;62.76;96192.69;10462148;28;20059;-57
2022/09/17 22:46:45;;;;;;;3.83;2.03;;;;;;;20.04;62.44;96200.38;10461669;28;20094;-57
2022/09/17 22:51:45;;;;;;;3.40;1.98;;;;;;;20.03;62.75;96196.91;10461883;28;20503;-57
2022/09/17 22:56:46;;;;;;;5.47;1.70;;;;;;;19.96;63.05;96189.50;10461145;28;20496;-57
2022/09/17 23:01:45;;;;;;;5.80;2.10;;;;;;;19.91;63.02;96207.38;10459471;28;20063;-57
2022/09/17 23:06:44;;;;;;;6.82;2.20;;;;;;;19.83;63.50;96208.69;10461056;28;20040;-57
2022/09/17 23:11:44;;;;;;;5.20;2.47;;;;;;;19.76;63.93;96210.03;10461130;28;20734;-57
2022/09/17 23:16:45;;;;;;;4.40;2.00;;;;;;;19.62;64.55;96225.81;10460711;28;20055;-57
2022/09/17 23:21:45;;;;;;;2.83;1.80;;;;;;;19.26;65.91;96223.66;10459510;28;20075;-57
2022/09/17 23:26:44;;;;;;;2.92;1.60;;;;;;;18.85;68.01;96221.69;10459678;28;20079;-56
2022/09/17 23:31:43;;;;;;;5.68;2.10;;;;;;;18.55;69.73;96236.47;10460084;28;20074;-56
2022/09/17 23:36:42;;;;;;;5.93;2.45;;;;;;;18.23;71.41;96242.72;10459601;28;20066;-56
2022/09/17 23:41:43;;;;;;;6.30;2.15;;;;;;;18.07;71.96;96240.09;10459372;28;20075;-56
2022/09/17 23:46:44;;;;;;;5.45;2.42;;;;;;;18.07;72.54;96271.59;10462152;28;20082;-56
2022/09/17 23:51:43;;;;;;;7.55;2.30;;;;;;;18.04;73.42;96266.50;10462764;28;20027;-57
2022/09/17 23:56:43;;;;;;;4.20;2.30;;;;;;;18.06;73.43;96280.38;10462301;28;20063;-56
